createdAt,value
2022-08-04T00:01:57.012Z,11.35
2022-08-04T00:04:55.204Z,10.20
2022-08-04T00:07:43.918Z,10.95
2022-08-04T00:10:18.416Z,13.20
2022-08-04T00:12:52.848Z,12.63
2022-08-04T00:15:26.902Z,9.65
2022-08-04T00:18:07.187Z,12.95
2022-08-04T00:20:42.764Z,12.70
2022-08-04T00:23:13.087Z,12.10
2022-08-04T00:25:43.566Z,9.52
2022-08-04T00:28:13.804Z,13.60
2022-08-04T00:30:44.769Z,11.27
2022-08-04T00:33:20.365Z,14.07
2022-08-04T00:35:53.047Z,14.32
2022-08-04T00:38:23.831Z,15.95
2022-08-04T00:41:30.518Z,15.60
2022-08-04T00:44:23.765Z,14.77
2022-08-04T00:47:21.038Z,13.75
2022-08-04T00:50:27.875Z,13.02
2022-08-04T00:53:13.884Z,14.45
2022-08-04T00:56:18.912Z,12.30
2022-08-04T00:59:04.776Z,12.10
2022-08-04T01:01:54.097Z,13.05
2022-08-04T01:04:42.659Z,13.35
2022-08-04T01:07:33.960Z,13.37
2022-08-04T01:10:25.811Z,16.05
2022-08-04T01:13:26.123Z,11.98
2022-08-04T01:16:12.099Z,14.90
2022-08-04T01:18:47.648Z,11.90
2022-08-04T01:21:32.764Z,12.95
2022-08-04T01:24:41.031Z,12.25
2022-08-04T01:27:21.414Z,16.98
2022-08-04T01:30:00.953Z,14.52
2022-08-04T01:32:42.526Z,10.20
2022-08-04T01:35:46.921Z,9.90
2022-08-04T01:38:36.117Z,9.82
2022-08-04T01:41:09.724Z,11.82
2022-08-04T01:43:47.411Z,15.57
2022-08-04T01:46:19.317Z,10.60
2022-08-04T01:48:55.318Z,11.07
2022-08-04T01:51:27.341Z,11.02
2022-08-04T01:53:57.135Z,12.05
2022-08-04T01:56:31.160Z,13.75
2022-08-04T01:59:04.450Z,9.48
2022-08-04T02:01:39.273Z,8.27
2022-08-04T02:04:18.104Z,10.38
2022-08-04T02:07:27.814Z,9.45
2022-08-04T02:10:00.152Z,9.70
2022-08-04T02:12:43.488Z,14.10
2022-08-04T02:15:23.025Z,9.73
2022-08-04T02:18:12.606Z,10.83
2022-08-04T02:20:48.453Z,8.63
2022-08-04T02:23:38.009Z,8.85
2022-08-04T02:26:19.225Z,9.02
2022-08-04T02:29:06.146Z,8.83
2022-08-04T02:31:46.001Z,8.85
2022-08-04T02:34:25.663Z,10.27
2022-08-04T02:36:58.593Z,10.65
2022-08-04T02:39:48.460Z,9.32
2022-08-04T02:42:20.741Z,11.35
2022-08-04T02:44:53.661Z,12.00
2022-08-04T02:47:24.241Z,10.50
2022-08-04T02:50:28.658Z,12.45
2022-08-04T02:53:04.361Z,9.75
2022-08-04T02:55:41.968Z,10.30
2022-08-04T02:58:23.021Z,15.13
2022-08-04T03:00:53.685Z,13.25
2022-08-04T03:03:26.681Z,14.27
2022-08-04T03:06:33.229Z,13.63
2022-08-04T03:09:35.274Z,11.83
2022-08-04T03:12:05.495Z,10.85
2022-08-04T03:14:55.901Z,11.88
2022-08-04T03:18:00.143Z,13.38
2022-08-04T03:21:00.622Z,12.02
2022-08-04T03:23:51.101Z,12.30
2022-08-04T03:26:33.821Z,10.23
2022-08-04T03:29:35.196Z,10.27
2022-08-04T03:32:47.900Z,8.20
2022-08-04T03:35:56.423Z,10.70
2022-08-04T03:38:41.261Z,10.55
2022-08-04T03:41:51.848Z,11.98
2022-08-04T03:44:48.381Z,15.67
2022-08-04T03:47:53.923Z,9.90
2022-08-04T03:51:35.428Z,9.98
2022-08-04T03:54:30.226Z,10.32
2022-08-04T03:57:22.294Z,11.57
2022-08-04T04:00:17.906Z,10.85
2022-08-04T04:03:28.751Z,9.60
2022-08-04T04:06:33.268Z,13.70
2022-08-04T04:09:05.425Z,9.15
2022-08-04T04:12:21.026Z,8.95
2022-08-04T04:15:04.841Z,12.52
2022-08-04T04:18:10.948Z,10.65
2022-08-04T04:20:54.458Z,10.07
2022-08-04T04:24:09.028Z,11.80
2022-08-04T04:27:03.700Z,11.20
2022-08-04T04:29:39.427Z,14.20
2022-08-04T04:32:37.740Z,11.95
2022-08-04T04:35:19.906Z,12.80
2022-08-04T04:37:53.746Z,10.27
2022-08-04T04:40:46.257Z,11.00
2022-08-04T04:43:51.351Z,9.95
2022-08-04T04:46:26.859Z,10.68
2022-08-04T04:49:17.980Z,10.05
2022-08-04T04:52:29.266Z,11.20
2022-08-04T04:55:20.947Z,8.98
2022-08-04T04:57:55.380Z,9.07
2022-08-04T05:00:36.225Z,9.97
2022-08-04T05:03:30.473Z,11.02
2022-08-04T05:06:09.370Z,10.77
2022-08-04T05:08:51.176Z,11.65
2022-08-04T05:11:43.693Z,11.70
2022-08-04T05:14:38.054Z,9.23
2022-08-04T05:17:44.965Z,9.83
2022-08-04T05:20:44.331Z,10.13
2022-08-04T05:23:25.085Z,10.30
2022-08-04T05:26:12.406Z,10.63
2022-08-04T05:28:47.247Z,7.95
2022-08-04T05:31:35.027Z,11.13
2022-08-04T05:34:13.417Z,11.30
2022-08-04T05:36:51.028Z,9.43
2022-08-04T05:39:34.110Z,11.02
2022-08-04T05:42:07.384Z,12.60
2022-08-04T05:44:42.068Z,13.90
2022-08-04T05:47:14.846Z,8.60
2022-08-04T05:49:46.326Z,9.90
2022-08-04T05:52:33.275Z,12.15
2022-08-04T05:55:09.267Z,9.45
2022-08-04T05:57:46.266Z,9.23
2022-08-04T06:00:40.246Z,8.75
2022-08-04T06:03:12.807Z,11.80
2022-08-04T06:05:45.387Z,13.68
2022-08-04T06:08:15.986Z,11.82
2022-08-04T06:10:48.307Z,10.70
2022-08-04T06:13:48.088Z,12.07
2022-08-04T06:16:28.567Z,12.17
2022-08-04T06:20:02.864Z,9.30
2022-08-04T06:21:58.529Z,8.45
2022-08-04T06:24:31.426Z,11.70
2022-08-04T06:27:02.469Z,10.63
2022-08-04T06:29:39.665Z,9.90
2022-08-04T06:32:35.719Z,9.43
2022-08-04T06:35:10.465Z,9.15
2022-08-04T06:37:44.237Z,10.27
2022-08-04T06:40:30.759Z,9.13
2022-08-04T06:43:04.578Z,9.38
2022-08-04T06:45:37.987Z,7.55
2022-08-04T06:48:09.906Z,9.45
2022-08-04T06:51:26.462Z,12.13
2022-08-04T06:53:32.307Z,7.97
2022-08-04T06:56:04.150Z,8.52
2022-08-04T06:58:35.350Z,10.43
2022-08-04T07:01:06.541Z,8.43
2022-08-04T07:03:36.709Z,7.90
2022-08-04T07:06:14.137Z,11.13
2022-08-04T07:09:10.468Z,12.17
2022-08-04T07:11:44.717Z,10.40
2022-08-04T07:14:16.551Z,11.17
2022-08-04T07:16:49.986Z,9.73
2022-08-04T07:19:20.627Z,8.73
2022-08-04T07:22:16.161Z,9.52
2022-08-04T07:24:43.354Z,8.15
2022-08-04T07:27:14.127Z,7.85
2022-08-04T07:29:43.858Z,8.65
2022-08-04T07:32:15.858Z,8.87
2022-08-04T07:34:49.669Z,9.73
2022-08-04T07:37:21.853Z,9.80
2022-08-04T07:40:07.388Z,8.90
2022-08-04T07:42:38.838Z,9.35
2022-08-04T07:45:10.695Z,10.48
2022-08-04T07:47:41.751Z,8.02
2022-08-04T07:50:31.966Z,10.55
2022-08-04T07:53:52.918Z,8.82
2022-08-04T07:55:51.508Z,10.15
2022-08-04T07:58:21.358Z,10.95
2022-08-04T08:00:53.096Z,7.90
2022-08-04T08:03:26.480Z,9.35
2022-08-04T08:06:31.042Z,10.52
2022-08-04T08:08:46.564Z,14.45
2022-08-04T08:11:18.171Z,8.85
2022-08-04T08:13:48.361Z,7.65
2022-08-04T08:16:21.874Z,8.55
2022-08-04T08:18:56.488Z,12.85
2022-08-04T08:21:29.482Z,15.02
2022-08-04T08:23:59.703Z,9.68
2022-08-04T08:26:30.214Z,10.00
2022-08-04T08:29:00.696Z,9.88
2022-08-04T08:31:55.593Z,10.30
2022-08-04T08:34:21.631Z,14.15
2022-08-04T08:37:27.926Z,9.95
2022-08-04T08:40:40.800Z,9.27
2022-08-04T08:44:00.266Z,10.85
2022-08-04T08:46:49.861Z,11.50
2022-08-04T08:50:01.786Z,11.65
2022-08-04T08:52:57.450Z,9.02
2022-08-04T08:55:56.625Z,11.45
2022-08-04T08:58:41.006Z,13.50
2022-08-04T09:01:47.442Z,10.60
2022-08-04T09:05:15.585Z,18.38
2022-08-04T09:08:00.385Z,9.85
2022-08-04T09:10:54.805Z,9.50
2022-08-04T09:13:42.864Z,11.23
2022-08-04T09:16:39.205Z,12.23
2022-08-04T09:19:44.944Z,12.60
2022-08-04T09:22:34.304Z,12.75
2022-08-04T09:25:13.684Z,11.65
2022-08-04T09:27:53.584Z,12.43
2022-08-04T09:30:41.180Z,12.57
2022-08-04T09:33:22.624Z,12.80
2022-08-04T09:36:26.856Z,14.63
2022-08-04T09:39:13.358Z,17.73
2022-08-04T09:42:29.292Z,14.90
2022-08-04T09:45:07.944Z,12.88
2022-08-04T09:47:58.662Z,12.57
2022-08-04T09:50:46.887Z,11.18
2022-08-04T09:53:30.784Z,13.98
2022-08-04T09:56:12.143Z,11.80
2022-08-04T09:59:21.605Z,16.00
2022-08-04T10:01:58.966Z,13.95
2022-08-04T10:04:33.607Z,12.75
2022-08-04T10:07:39.345Z,14.68
2022-08-04T10:10:43.425Z,14.48
2022-08-04T10:13:42.153Z,14.45
2022-08-04T10:17:00.625Z,15.15
2022-08-04T10:19:37.327Z,16.65
2022-08-04T10:22:45.020Z,13.70
2022-08-04T10:26:08.316Z,20.02
2022-08-04T10:28:48.066Z,19.58
2022-08-04T10:31:34.726Z,16.67
2022-08-04T10:34:20.626Z,21.65
2022-08-04T10:36:59.892Z,16.85
2022-08-04T10:40:28.066Z,13.02
2022-08-04T10:43:20.814Z,14.53
2022-08-04T10:46:18.106Z,15.93
2022-08-04T10:49:00.626Z,15.00
2022-08-04T10:51:58.111Z,10.38
2022-08-04T10:55:06.065Z,11.38
2022-08-04T10:57:42.965Z,23.90
2022-08-04T11:00:23.757Z,18.08
2022-08-04T11:03:00.949Z,13.10
2022-08-04T11:05:56.708Z,14.73
2022-08-04T11:08:36.868Z,16.63
2022-08-04T11:11:22.746Z,15.93
2022-08-04T11:14:13.285Z,15.52
2022-08-04T11:16:59.266Z,13.88
2022-08-04T11:20:18.562Z,18.05
2022-08-04T11:23:15.306Z,14.00
2022-08-04T11:26:20.408Z,13.98
2022-08-04T11:29:15.268Z,14.32
2022-08-04T11:31:52.225Z,27.80
2022-08-04T11:34:23.185Z,16.17
2022-08-04T11:37:17.707Z,19.95
2022-08-04T11:39:56.047Z,20.40
2022-08-04T11:42:30.067Z,14.73
2022-08-04T11:45:06.391Z,14.55
2022-08-04T11:48:21.204Z,16.27
2022-08-04T11:50:58.207Z,16.55
2022-08-04T11:53:36.882Z,18.48
2022-08-04T11:56:13.823Z,17.08
2022-08-04T11:59:04.310Z,17.48
2022-08-04T12:01:50.004Z,14.43
2022-08-04T12:04:57.697Z,15.70
2022-08-04T12:08:03.937Z,17.90
2022-08-04T12:11:00.776Z,16.95
2022-08-04T12:13:41.804Z,17.85
2022-08-04T12:16:31.478Z,16.75
2022-08-04T12:19:04.946Z,18.85
2022-08-04T12:21:50.466Z,23.05
2022-08-04T12:24:48.725Z,19.75
2022-08-04T12:27:30.490Z,19.00
2022-08-04T12:31:02.137Z,23.58
2022-08-04T12:32:53.548Z,20.75
2022-08-04T12:35:37.849Z,18.67
2022-08-04T12:38:33.335Z,22.87
2022-08-04T12:41:05.268Z,21.05
2022-08-04T12:43:44.867Z,22.67
2022-08-04T12:46:30.647Z,21.37
2022-08-04T12:49:05.186Z,22.83
2022-08-04T12:52:07.834Z,25.10
2022-08-04T12:54:38.058Z,25.05
2022-08-04T12:57:10.206Z,25.55
2022-08-04T12:59:57.895Z,21.45
2022-08-04T13:02:37.058Z,30.63
2022-08-04T13:05:09.697Z,27.65
2022-08-04T13:07:54.964Z,24.25
2022-08-04T13:10:30.350Z,24.55
2022-08-04T13:13:03.608Z,26.38
2022-08-04T13:15:47.431Z,23.65
2022-08-04T13:18:29.535Z,24.50
2022-08-04T13:21:19.400Z,32.30
2022-08-04T13:24:10.654Z,31.90
2022-08-04T13:26:57.837Z,27.08
2022-08-04T13:29:59.806Z,34.35
2022-08-04T13:32:30.144Z,32.25
2022-08-04T13:35:03.505Z,27.35
2022-08-04T13:37:37.426Z,33.33
2022-08-04T13:40:12.487Z,32.03
2022-08-04T13:42:48.119Z,30.48
2022-08-04T13:45:34.868Z,30.52
2022-08-04T13:48:20.203Z,28.80
2022-08-04T13:50:58.088Z,26.05
2022-08-04T13:53:31.080Z,27.88
2022-08-04T13:56:03.625Z,32.80
2022-08-04T13:58:40.737Z,31.73
2022-08-04T14:01:35.252Z,34.15
2022-08-04T14:04:28.816Z,35.75
2022-08-04T14:07:06.744Z,27.60
2022-08-04T14:10:03.627Z,48.63
2022-08-04T14:12:38.499Z,26.50
2022-08-04T14:16:02.341Z,32.47
2022-08-04T14:18:31.305Z,27.52
2022-08-04T14:21:03.888Z,35.07
2022-08-04T14:23:53.913Z,32.60
2022-08-04T14:26:32.494Z,35.05
2022-08-04T14:29:26.372Z,28.27
2022-08-04T14:32:12.476Z,32.88
2022-08-04T14:34:47.025Z,29.77
2022-08-04T14:37:21.068Z,27.95
2022-08-04T14:40:18.879Z,30.20
2022-08-04T14:42:55.475Z,28.77
2022-08-04T14:45:54.151Z,27.92
2022-08-04T14:48:25.197Z,28.92
2022-08-04T14:50:56.944Z,31.00
2022-08-04T14:53:28.065Z,29.35
2022-08-04T14:56:01.215Z,32.70
2022-08-04T14:58:39.071Z,28.80
2022-08-04T15:01:12.927Z,31.88
2022-08-04T15:03:50.547Z,32.00
2022-08-04T15:06:28.518Z,39.25
2022-08-04T15:09:01.246Z,38.37
2022-08-04T15:11:32.480Z,32.30
2022-08-04T15:14:10.144Z,69.50
2022-08-04T15:17:01.125Z,66.20
2022-08-04T15:19:31.328Z,85.37
2022-08-04T15:22:04.787Z,73.38
2022-08-04T15:24:35.427Z,78.70
2022-08-04T15:27:06.027Z,88.93
2022-08-04T15:29:59.524Z,48.72
2022-08-04T15:32:41.767Z,100.72
2022-08-04T15:35:14.867Z,138.15
2022-08-04T15:38:15.048Z,58.10
2022-08-04T15:40:56.688Z,35.92
2022-08-04T15:43:45.447Z,29.20
2022-08-04T15:46:42.843Z,31.40
2022-08-04T15:49:29.403Z,39.42
2022-08-04T15:52:12.057Z,85.35
2022-08-04T15:54:52.498Z,34.63
2022-08-04T15:58:02.867Z,51.45
2022-08-04T16:01:02.788Z,32.38
2022-08-04T16:04:00.278Z,97.50
2022-08-04T16:06:29.680Z,30.95
2022-08-04T16:09:04.818Z,32.83
2022-08-04T16:11:36.725Z,72.53
2022-08-04T16:14:08.546Z,34.45
2022-08-04T16:16:42.493Z,41.60
2022-08-04T16:19:18.979Z,59.47
2022-08-04T16:22:01.327Z,32.42
2022-08-04T16:24:39.989Z,54.92
2022-08-04T16:27:11.600Z,54.13
2022-08-04T16:29:49.364Z,42.23
2022-08-04T16:32:21.769Z,36.30
2022-08-04T16:34:57.633Z,47.67
2022-08-04T16:37:32.251Z,36.30
2022-08-04T16:40:35.738Z,33.25
2022-08-04T16:43:16.866Z,32.38
2022-08-04T16:45:51.768Z,31.85
2022-08-04T16:48:26.915Z,34.73
2022-08-04T16:51:11.524Z,32.40
2022-08-04T16:54:02.870Z,34.73
2022-08-04T16:56:35.979Z,27.50
2022-08-04T16:59:11.127Z,27.38
2022-08-04T17:01:51.100Z,31.67
2022-08-04T17:04:34.189Z,28.80
2022-08-04T17:07:06.803Z,30.55
2022-08-04T17:09:37.307Z,31.45
2022-08-04T17:12:07.669Z,30.92
2022-08-04T17:14:38.731Z,31.90
2022-08-04T17:17:09.847Z,28.42
2022-08-04T17:19:40.867Z,28.65
2022-08-04T17:22:10.868Z,31.35
2022-08-04T17:24:42.070Z,32.28
2022-08-04T17:28:19.303Z,35.67
2022-08-04T17:30:02.987Z,26.77
2022-08-04T17:32:33.447Z,27.13
2022-08-04T17:35:04.255Z,28.42
2022-08-04T17:37:40.982Z,28.42
2022-08-04T17:40:25.518Z,31.93
2022-08-04T17:44:03.506Z,31.17
2022-08-04T17:46:35.589Z,28.45
2022-08-04T17:49:13.408Z,25.77
2022-08-04T17:52:04.806Z,29.00
2022-08-04T17:54:40.824Z,28.85
2022-08-04T17:57:23.402Z,25.30
2022-08-04T17:59:59.819Z,35.67
2022-08-04T18:02:35.445Z,28.98
2022-08-04T18:05:11.879Z,23.98
2022-08-04T18:08:39.153Z,26.93
2022-08-04T18:10:55.630Z,25.20
2022-08-04T18:13:29.309Z,24.35
2022-08-04T18:16:14.528Z,26.52
2022-08-04T18:19:11.677Z,26.75
2022-08-04T18:21:46.444Z,25.75
2022-08-04T18:24:36.131Z,26.77
2022-08-04T18:27:29.709Z,26.63
2022-08-04T18:30:27.982Z,24.63
2022-08-04T18:33:10.539Z,25.02
2022-08-04T18:36:33.319Z,24.90
2022-08-04T18:38:32.224Z,25.30
2022-08-04T18:41:01.585Z,26.80
2022-08-04T18:43:40.954Z,27.10
2022-08-04T18:46:14.784Z,27.10
2022-08-04T18:48:52.246Z,31.70
2022-08-04T18:51:25.274Z,26.13
2022-08-04T18:54:01.685Z,30.95
2022-08-04T18:56:34.165Z,30.30
2022-08-04T18:59:10.263Z,29.38
2022-08-04T19:02:12.886Z,40.90
2022-08-04T19:04:34.173Z,51.47
2022-08-04T19:07:29.471Z,50.75
2022-08-04T19:09:59.775Z,35.67
2022-08-04T19:12:30.226Z,29.58
2022-08-04T19:15:08.764Z,32.67
2022-08-04T19:17:53.674Z,30.20
2022-08-04T19:20:28.026Z,29.48
2022-08-04T19:24:29.532Z,32.78
2022-08-04T19:26:03.910Z,32.10
2022-08-04T19:28:38.405Z,32.50
2022-08-04T19:31:10.633Z,36.50
2022-08-04T19:33:58.358Z,36.25
2022-08-04T19:36:34.925Z,86.55
2022-08-04T19:39:12.046Z,34.15
2022-08-04T19:42:04.859Z,32.88
2022-08-04T19:44:33.502Z,32.92
2022-08-04T19:48:16.953Z,35.08
2022-08-04T19:50:04.176Z,33.58
2022-08-04T19:52:40.431Z,33.58
2022-08-04T19:55:37.111Z,36.20
2022-08-04T19:58:10.221Z,34.67
2022-08-04T20:00:50.909Z,35.40
2022-08-04T20:03:21.990Z,28.48
2022-08-04T20:05:55.841Z,25.52
2022-08-04T20:08:29.041Z,20.65
2022-08-04T20:10:59.593Z,22.53
2022-08-04T20:13:37.477Z,21.63
2022-08-04T20:16:29.267Z,21.30
2022-08-04T20:21:55.188Z,23.23
2022-08-04T20:24:37.560Z,16.88
2022-08-04T20:27:16.263Z,23.88
2022-08-04T20:29:49.828Z,20.70
2022-08-04T20:32:26.073Z,23.73
2022-08-04T20:34:57.761Z,20.05
2022-08-04T20:37:29.049Z,25.43
2022-08-04T20:40:19.129Z,26.35
2022-08-04T20:42:51.982Z,23.90
2022-08-04T20:45:22.897Z,23.83
2022-08-04T20:47:54.102Z,25.52
2022-08-04T20:50:29.566Z,22.40
2022-08-04T20:53:01.183Z,18.58
2022-08-04T20:55:30.866Z,20.20
2022-08-04T20:58:04.140Z,18.73
2022-08-04T21:00:34.724Z,19.42
2022-08-04T21:03:07.968Z,15.82
2022-08-04T21:05:37.187Z,14.18
2022-08-04T21:08:07.163Z,18.67
2022-08-04T21:10:36.785Z,16.17
2022-08-04T21:13:06.865Z,13.80
2022-08-04T21:15:58.669Z,16.42
2022-08-04T21:18:29.382Z,17.23
2022-08-04T21:20:58.707Z,17.58
2022-08-04T21:23:28.004Z,20.23
2022-08-04T21:26:04.385Z,17.30
2022-08-04T21:28:34.549Z,17.25
2022-08-04T21:31:11.043Z,15.98
2022-08-04T21:33:51.085Z,18.85
2022-08-04T21:36:21.449Z,23.08
2022-08-04T21:38:52.333Z,18.17
2022-08-04T21:41:24.572Z,32.03
2022-08-04T21:43:58.824Z,25.50
2022-08-04T21:46:30.463Z,30.30
2022-08-04T21:49:01.939Z,32.72
2022-08-04T21:51:58.942Z,31.20
2022-08-04T21:54:32.226Z,28.83
2022-08-04T21:57:03.494Z,34.30
2022-08-04T21:59:33.431Z,29.55
2022-08-04T22:02:14.926Z,29.80
2022-08-04T22:04:48.276Z,30.00
2022-08-04T22:07:18.981Z,33.53
2022-08-04T22:10:02.364Z,31.27
2022-08-04T22:12:33.992Z,26.10
2022-08-04T22:15:22.784Z,32.50
2022-08-04T22:17:58.103Z,29.67
2022-08-04T22:20:28.443Z,29.85
2022-08-04T22:23:06.014Z,31.65
2022-08-04T22:25:55.630Z,28.75
2022-08-04T22:28:28.239Z,28.75
2022-08-04T22:30:59.109Z,25.30
2022-08-04T22:33:54.873Z,27.23
2022-08-04T22:36:18.205Z,27.45
2022-08-04T22:38:50.143Z,24.13
2022-08-04T22:41:34.459Z,24.85
2022-08-04T22:44:16.103Z,22.15
2022-08-04T22:46:46.233Z,26.33
2022-08-04T22:49:17.682Z,22.98
2022-08-04T22:51:53.359Z,22.40
2022-08-04T22:54:22.627Z,27.88
2022-08-04T22:56:56.604Z,25.83
2022-08-04T22:59:25.911Z,23.98
2022-08-04T23:02:00.120Z,24.63
2022-08-04T23:04:34.451Z,27.85
2022-08-04T23:07:09.580Z,25.10
2022-08-04T23:09:50.079Z,25.67
2022-08-04T23:12:26.158Z,29.90
2022-08-04T23:15:00.179Z,26.38
2022-08-04T23:17:35.252Z,23.58
2022-08-04T23:20:23.182Z,22.63
2022-08-04T23:22:55.719Z,24.85
2022-08-04T23:25:32.964Z,25.55
2022-08-04T23:28:14.787Z,23.67
2022-08-04T23:30:45.372Z,20.85
2022-08-04T23:33:15.326Z,21.98
2022-08-04T23:35:44.521Z,15.40
2022-08-04T23:38:31.580Z,16.52
2022-08-04T23:41:13.502Z,18.30
2022-08-04T23:43:55.137Z,15.05
2022-08-04T23:46:25.414Z,18.55
2022-08-04T23:48:57.347Z,16.27
2022-08-04T23:51:26.432Z,13.70
2022-08-04T23:54:03.604Z,18.48
2022-08-04T23:56:37.994Z,17.47
2022-08-04T23:59:23.109Z,13.70
